sensor_id;sensor_type;location;lat;lon;timestamp;noise_LAeq;noise_LA_min;noise_LA_max;noise_LA01;noise_LA95
70245;Laerm;57637;49.272;8.590;2022-10-16T00:01:09;32.51;28.77;42.85;;
70245;Laerm;57637;49.272;8.590;2022-10-16T00:03:36;31.66;28.32;45.09;;
70245;Laerm;57637;49.272;8.590;2022-10-16T00:06:03;30.67;28.31;39.24;;
70245;Laerm;57637;49.272;8.590;2022-10-16T00:08:29;30.46;28.14;40.62;;
70245;Laerm;57637;49.272;8.590;2022-10-16T00:11:26;31.25;28.43;38.35;;
70245;Laerm;57637;49.272;8.590;2022-10-16T00:13:57;30.78;28.40;40.02;;
70245;Laerm;57637;49.272;8.590;2022-10-16T00:16:23;30.06;28.05;39.53;;
70245;Laerm;57637;49.272;8.590;2022-10-16T00:18:48;30.27;28.21;44.73;;
70245;Laerm;57637;49.272;8.590;2022-10-16T00:21:19;31.05;28.06;41.03;;
70245;Laerm;57637;49.272;8.590;2022-10-16T00:23:46;30.48;27.97;44.59;;
70245;Laerm;57637;49.272;8.590;2022-10-16T00:26:16;29.83;27.66;38.99;;
70245;Laerm;57637;49.272;8.590;2022-10-16T00:28:42;30.12;28.05;41.74;;
70245;Laerm;57637;49.272;8.590;2022-10-16T00:31:10;33.31;28.22;47.36;;
70245;Laerm;57637;49.272;8.590;2022-10-16T00:33:37;34.12;28.07;49.66;;
70245;Laerm;57637;49.272;8.590;2022-10-16T00:36:04;30.97;27.98;44.81;;
70245;Laerm;57637;49.272;8.590;2022-10-16T00:38:30;34.18;28.81;45.98;;
70245;Laerm;57637;49.272;8.590;2022-10-16T00:40:56;30.75;27.89;38.30;;
70245;Laerm;57637;49.272;8.590;2022-10-16T00:46:17;35.12;28.82;45.04;;
70245;Laerm;57637;49.272;8.590;2022-10-16T00:49:02;30.22;28.16;41.45;;
70245;Laerm;57637;49.272;8.590;2022-10-16T00:51:33;29.44;27.75;38.68;;
70245;Laerm;57637;49.272;8.590;2022-10-16T00:53:59;29.36;27.54;40.24;;
70245;Laerm;57637;49.272;8.590;2022-10-16T00:56:25;29.71;27.64;40.66;;
70245;Laerm;57637;49.272;8.590;2022-10-16T00:58:51;28.88;27.51;39.06;;
70245;Laerm;57637;49.272;8.590;2022-10-16T01:01:17;29.17;27.61;38.64;;
70245;Laerm;57637;49.272;8.590;2022-10-16T01:03:42;29.39;27.57;38.45;;
70245;Laerm;57637;49.272;8.590;2022-10-16T01:08:58;29.14;27.46;38.94;;
70245;Laerm;57637;49.272;8.590;2022-10-16T01:14:22;29.71;27.60;38.81;;
70245;Laerm;57637;49.272;8.590;2022-10-16T01:17:12;30.00;27.88;40.88;;
70245;Laerm;57637;49.272;8.590;2022-10-16T01:22:20;29.57;27.82;39.85;;
70245;Laerm;57637;49.272;8.590;2022-10-16T01:24:49;29.73;28.12;39.04;;
70245;Laerm;57637;49.272;8.590;2022-10-16T01:27:21;29.92;28.12;38.67;;
70245;Laerm;57637;49.272;8.590;2022-10-16T01:29:52;29.74;27.96;42.63;;
70245;Laerm;57637;49.272;8.590;2022-10-16T01:32:30;30.81;28.17;43.63;;
70245;Laerm;57637;49.272;8.590;2022-10-16T01:35:12;30.79;27.78;43.35;;
70245;Laerm;57637;49.272;8.590;2022-10-16T01:37:46;34.08;28.01;43.61;;
70245;Laerm;57637;49.272;8.590;2022-10-16T01:40:16;31.85;27.86;41.93;;
70245;Laerm;57637;49.272;8.590;2022-10-16T01:42:49;30.82;27.57;39.32;;
70245;Laerm;57637;49.272;8.590;2022-10-16T01:45:17;30.86;27.92;39.65;;
70245;Laerm;57637;49.272;8.590;2022-10-16T01:47:44;33.01;28.43;42.24;;
70245;Laerm;57637;49.272;8.590;2022-10-16T01:50:12;35.37;28.15;46.11;;
70245;Laerm;57637;49.272;8.590;2022-10-16T01:52:40;33.63;28.09;41.81;;
70245;Laerm;57637;49.272;8.590;2022-10-16T01:55:09;32.85;27.91;42.39;;
70245;Laerm;57637;49.272;8.590;2022-10-16T01:57:38;32.13;28.03;42.65;;
70245;Laerm;57637;49.272;8.590;2022-10-16T02:00:09;31.71;27.99;39.71;;
70245;Laerm;57637;49.272;8.590;2022-10-16T02:02:38;33.28;28.45;41.10;;
70245;Laerm;57637;49.272;8.590;2022-10-16T02:05:20;30.77;28.03;41.79;;
70245;Laerm;57637;49.272;8.590;2022-10-16T02:07:48;30.90;28.06;37.66;;
70245;Laerm;57637;49.272;8.590;2022-10-16T02:10:14;30.44;28.04;37.18;;
70245;Laerm;57637;49.272;8.590;2022-10-16T02:12:44;29.32;27.63;37.30;;
70245;Laerm;57637;49.272;8.590;2022-10-16T02:15:10;30.50;28.01;38.20;;
70245;Laerm;57637;49.272;8.590;2022-10-16T02:17:36;31.70;27.94;45.03;;
70245;Laerm;57637;49.272;8.590;2022-10-16T02:20:02;30.43;27.99;39.28;;
70245;Laerm;57637;49.272;8.590;2022-10-16T02:22:39;31.58;28.44;54.56;;
70245;Laerm;57637;49.272;8.590;2022-10-16T02:25:31;31.45;28.23;47.81;;
70245;Laerm;57637;49.272;8.590;2022-10-16T02:30:33;29.81;27.73;38.98;;
70245;Laerm;57637;49.272;8.590;2022-10-16T02:33:01;30.30;27.84;38.65;;
70245;Laerm;57637;49.272;8.590;2022-10-16T02:35:29;30.10;27.81;36.45;;
70245;Laerm;57637;49.272;8.590;2022-10-16T02:37:56;30.25;27.52;39.69;;
70245;Laerm;57637;49.272;8.590;2022-10-16T02:40:23;33.32;27.30;49.66;;
70245;Laerm;57637;49.272;8.590;2022-10-16T02:42:51;30.33;27.83;38.10;;
70245;Laerm;57637;49.272;8.590;2022-10-16T02:45:17;29.07;27.49;37.74;;
70245;Laerm;57637;49.272;8.590;2022-10-16T02:47:42;29.47;27.49;38.82;;
70245;Laerm;57637;49.272;8.590;2022-10-16T02:50:07;29.79;27.47;36.91;;
70245;Laerm;57637;49.272;8.590;2022-10-16T02:52:33;29.46;27.95;38.49;;
70245;Laerm;57637;49.272;8.590;2022-10-16T02:54:58;29.75;27.76;37.87;;
70245;Laerm;57637;49.272;8.590;2022-10-16T02:57:24;28.90;27.65;35.14;;
70245;Laerm;57637;49.272;8.590;2022-10-16T02:59:49;28.99;27.52;35.81;;
70245;Laerm;57637;49.272;8.590;2022-10-16T03:02:14;29.04;27.63;39.00;;
70245;Laerm;57637;49.272;8.590;2022-10-16T03:04:40;28.72;27.22;36.02;;
70245;Laerm;57637;49.272;8.590;2022-10-16T03:07:05;29.63;27.85;35.49;;
70245;Laerm;57637;49.272;8.590;2022-10-16T03:09:30;30.21;27.95;37.60;;
70245;Laerm;57637;49.272;8.590;2022-10-16T03:11:56;37.75;28.32;54.20;;
70245;Laerm;57637;49.272;8.590;2022-10-16T03:14:21;30.32;28.04;37.15;;
70245;Laerm;57637;49.272;8.590;2022-10-16T03:16:47;31.76;28.68;39.85;;
70245;Laerm;57637;49.272;8.590;2022-10-16T03:19:12;30.82;28.57;37.75;;
70245;Laerm;57637;49.272;8.590;2022-10-16T03:21:37;31.37;28.58;37.65;;
70245;Laerm;57637;49.272;8.590;2022-10-16T03:24:03;30.46;28.41;37.33;;
70245;Laerm;57637;49.272;8.590;2022-10-16T03:26:28;30.90;27.91;57.16;;
70245;Laerm;57637;49.272;8.590;2022-10-16T03:28:54;29.39;27.67;40.38;;
70245;Laerm;57637;49.272;8.590;2022-10-16T03:31:19;31.50;27.60;44.17;;
70245;Laerm;57637;49.272;8.590;2022-10-16T03:33:45;32.39;28.27;41.44;;
70245;Laerm;57637;49.272;8.590;2022-10-16T03:36:10;30.63;28.15;43.05;;
70245;Laerm;57637;49.272;8.590;2022-10-16T03:38:35;36.83;28.57;53.80;;
70245;Laerm;57637;49.272;8.590;2022-10-16T03:41:01;31.04;28.30;39.78;;
70245;Laerm;57637;49.272;8.590;2022-10-16T03:43:26;31.43;28.67;41.33;;
70245;Laerm;57637;49.272;8.590;2022-10-16T03:45:51;31.30;29.12;43.91;;
70245;Laerm;57637;49.272;8.590;2022-10-16T03:48:18;32.49;29.18;41.16;;
70245;Laerm;57637;49.272;8.590;2022-10-16T03:50:43;34.16;29.53;41.77;;
70245;Laerm;57637;49.272;8.590;2022-10-16T03:53:09;35.75;29.83;46.14;;
70245;Laerm;57637;49.272;8.590;2022-10-16T03:55:35;34.30;29.88;40.34;;
70245;Laerm;57637;49.272;8.590;2022-10-16T03:58:00;34.91;30.83;42.25;;
70245;Laerm;57637;49.272;8.590;2022-10-16T04:00:25;33.41;30.00;38.46;;
70245;Laerm;57637;49.272;8.590;2022-10-16T04:02:51;35.71;31.67;44.68;;
70245;Laerm;57637;49.272;8.590;2022-10-16T04:05:17;40.38;31.02;60.73;;
70245;Laerm;57637;49.272;8.590;2022-10-16T04:07:42;36.02;32.28;42.08;;
70245;Laerm;57637;49.272;8.590;2022-10-16T04:10:08;34.26;30.50;39.08;;
70245;Laerm;57637;49.272;8.590;2022-10-16T04:12:33;36.06;30.75;60.19;;
70245;Laerm;57637;49.272;8.590;2022-10-16T04:14:58;34.46;30.63;52.64;;
70245;Laerm;57637;49.272;8.590;2022-10-16T04:17:24;33.59;30.75;46.55;;
70245;Laerm;57637;49.272;8.590;2022-10-16T04:19:49;33.74;30.36;40.31;;
70245;Laerm;57637;49.272;8.590;2022-10-16T04:22:15;33.21;30.24;38.24;;
70245;Laerm;57637;49.272;8.590;2022-10-16T04:24:40;34.35;30.94;39.47;;
70245;Laerm;57637;49.272;8.590;2022-10-16T04:27:05;38.21;31.51;48.11;;
70245;Laerm;57637;49.272;8.590;2022-10-16T04:29:31;38.58;31.46;49.33;;
70245;Laerm;57637;49.272;8.590;2022-10-16T04:31:56;35.27;30.64;40.47;;
70245;Laerm;57637;49.272;8.590;2022-10-16T04:34:21;35.67;30.58;45.10;;
70245;Laerm;57637;49.272;8.590;2022-10-16T04:36:48;33.99;30.43;52.54;;
70245;Laerm;57637;49.272;8.590;2022-10-16T04:39:14;35.28;30.96;51.86;;
70245;Laerm;57637;49.272;8.590;2022-10-16T04:41:40;34.81;30.27;49.11;;
70245;Laerm;57637;49.272;8.590;2022-10-16T04:44:05;36.64;31.14;47.76;;
70245;Laerm;57637;49.272;8.590;2022-10-16T04:46:30;36.43;31.55;45.66;;
70245;Laerm;57637;49.272;8.590;2022-10-16T04:48:56;34.31;30.17;54.73;;
70245;Laerm;57637;49.272;8.590;2022-10-16T04:51:21;35.13;31.30;42.17;;
70245;Laerm;57637;49.272;8.590;2022-10-16T04:53:46;36.16;31.90;43.28;;
70245;Laerm;57637;49.272;8.590;2022-10-16T04:56:12;35.52;31.85;40.76;;
70245;Laerm;57637;49.272;8.590;2022-10-16T04:58:37;39.17;32.37;50.99;;
70245;Laerm;57637;49.272;8.590;2022-10-16T05:01:02;37.86;32.67;46.94;;
70245;Laerm;57637;49.272;8.590;2022-10-16T05:03:28;36.64;30.31;46.66;;
70245;Laerm;57637;49.272;8.590;2022-10-16T05:05:53;35.54;30.48;42.24;;
70245;Laerm;57637;49.272;8.590;2022-10-16T05:08:19;33.71;30.32;52.07;;
70245;Laerm;57637;49.272;8.590;2022-10-16T05:10:44;33.18;30.07;51.51;;
70245;Laerm;57637;49.272;8.590;2022-10-16T05:13:10;33.08;30.05;46.30;;
70245;Laerm;57637;49.272;8.590;2022-10-16T05:15:36;38.15;30.22;54.16;;
70245;Laerm;57637;49.272;8.590;2022-10-16T05:18:01;35.81;31.88;40.41;;
70245;Laerm;57637;49.272;8.590;2022-10-16T05:20:27;35.05;31.40;42.10;;
70245;Laerm;57637;49.272;8.590;2022-10-16T05:22:52;35.11;30.99;45.81;;
70245;Laerm;57637;49.272;8.590;2022-10-16T05:25:17;36.84;32.05;55.12;;
70245;Laerm;57637;49.272;8.590;2022-10-16T05:27:47;37.52;31.13;49.40;;
70245;Laerm;57637;49.272;8.590;2022-10-16T05:30:13;41.46;31.27;59.48;;
70245;Laerm;57637;49.272;8.590;2022-10-16T05:32:38;36.37;31.62;53.86;;
70245;Laerm;57637;49.272;8.590;2022-10-16T05:35:04;36.28;31.64;43.14;;
70245;Laerm;57637;49.272;8.590;2022-10-16T05:37:29;39.26;33.64;45.42;;
70245;Laerm;57637;49.272;8.590;2022-10-16T05:39:54;42.19;35.98;49.07;;
70245;Laerm;57637;49.272;8.590;2022-10-16T05:42:20;41.18;36.54;49.38;;
70245;Laerm;57637;49.272;8.590;2022-10-16T05:44:45;44.85;37.58;65.32;;
70245;Laerm;57637;49.272;8.590;2022-10-16T05:47:12;43.04;36.86;54.90;;
70245;Laerm;57637;49.272;8.590;2022-10-16T05:49:38;44.24;37.16;61.04;;
70245;Laerm;57637;49.272;8.590;2022-10-16T05:52:03;44.23;39.89;54.95;;
70245;Laerm;57637;49.272;8.590;2022-10-16T05:54:28;48.29;42.13;64.09;;
70245;Laerm;57637;49.272;8.590;2022-10-16T05:56:54;53.08;47.50;69.52;;
70245;Laerm;57637;49.272;8.590;2022-10-16T05:59:19;50.74;46.11;60.34;;
70245;Laerm;57637;49.272;8.590;2022-10-16T06:01:44;50.66;47.23;57.61;;
70245;Laerm;57637;49.272;8.590;2022-10-16T06:04:10;51.49;48.32;63.00;;
70245;Laerm;57637;49.272;8.590;2022-10-16T06:06:35;50.10;44.69;70.24;;
70245;Laerm;57637;49.272;8.590;2022-10-16T06:09:02;47.09;42.64;64.57;;
70245;Laerm;57637;49.272;8.590;2022-10-16T06:11:29;50.20;40.06;68.03;;
70245;Laerm;57637;49.272;8.590;2022-10-16T06:13:57;41.56;36.99;57.50;;
70245;Laerm;57637;49.272;8.590;2022-10-16T06:16:24;41.68;35.45;61.09;;
70245;Laerm;57637;49.272;8.590;2022-10-16T06:18:51;43.20;34.64;64.45;;
70245;Laerm;57637;49.272;8.590;2022-10-16T06:21:19;43.98;32.86;67.74;;
70245;Laerm;57637;49.272;8.590;2022-10-16T06:23:45;42.15;32.87;70.77;;
70245;Laerm;57637;49.272;8.590;2022-10-16T06:26:13;43.08;33.03;70.07;;
70245;Laerm;57637;49.272;8.590;2022-10-16T06:28:39;43.60;32.48;68.58;;
70245;Laerm;57637;49.272;8.590;2022-10-16T06:31:06;39.87;33.26;59.96;;
70245;Laerm;57637;49.272;8.590;2022-10-16T06:33:32;45.26;34.83;75.82;;
70245;Laerm;57637;49.272;8.590;2022-10-16T06:36:06;51.63;35.54;73.88;;
70245;Laerm;57637;49.272;8.590;2022-10-16T06:38:32;47.48;35.77;67.89;;
70245;Laerm;57637;49.272;8.590;2022-10-16T06:40:58;43.48;37.41;57.79;;
70245;Laerm;57637;49.272;8.590;2022-10-16T06:43:23;42.99;37.46;54.40;;
70245;Laerm;57637;49.272;8.590;2022-10-16T06:48:19;43.93;38.20;56.80;;
70245;Laerm;57637;49.272;8.590;2022-10-16T06:51:01;44.74;38.87;57.73;;
70245;Laerm;57637;49.272;8.590;2022-10-16T06:53:29;44.58;38.35;64.20;;
70245;Laerm;57637;49.272;8.590;2022-10-16T06:55:55;43.74;37.47;51.55;;
70245;Laerm;57637;49.272;8.590;2022-10-16T06:58:20;46.72;39.45;56.20;;
70245;Laerm;57637;49.272;8.590;2022-10-16T07:00:46;45.61;37.72;57.94;;
70245;Laerm;57637;49.272;8.590;2022-10-16T07:03:11;48.52;36.90;67.60;;
70245;Laerm;57637;49.272;8.590;2022-10-16T07:05:38;46.85;35.69;68.85;;
70245;Laerm;57637;49.272;8.590;2022-10-16T07:08:04;44.21;36.11;64.05;;
70245;Laerm;57637;49.272;8.590;2022-10-16T07:10:31;43.31;36.54;51.25;;
70245;Laerm;57637;49.272;8.590;2022-10-16T07:12:56;43.49;37.14;63.27;;
70245;Laerm;57637;49.272;8.590;2022-10-16T07:15:22;43.86;37.57;56.61;;
70245;Laerm;57637;49.272;8.590;2022-10-16T07:17:47;42.67;36.11;56.21;;
70245;Laerm;57637;49.272;8.590;2022-10-16T07:20:12;41.68;35.90;57.40;;
70245;Laerm;57637;49.272;8.590;2022-10-16T07:22:38;40.97;33.97;58.18;;
70245;Laerm;57637;49.272;8.590;2022-10-16T07:25:03;41.31;33.07;68.07;;
70245;Laerm;57637;49.272;8.590;2022-10-16T07:27:29;40.31;33.44;59.71;;
70245;Laerm;57637;49.272;8.590;2022-10-16T07:29:54;38.08;32.84;55.42;;
70245;Laerm;57637;49.272;8.590;2022-10-16T07:32:19;40.12;32.94;55.44;;
70245;Laerm;57637;49.272;8.590;2022-10-16T07:34:45;41.34;32.89;58.54;;
70245;Laerm;57637;49.272;8.590;2022-10-16T07:37:11;40.20;34.19;53.00;;
70245;Laerm;57637;49.272;8.590;2022-10-16T07:39:36;43.68;33.12;61.13;;
70245;Laerm;57637;49.272;8.590;2022-10-16T07:42:02;37.40;32.72;56.70;;
70245;Laerm;57637;49.272;8.590;2022-10-16T07:44:27;39.78;34.13;60.79;;
70245;Laerm;57637;49.272;8.590;2022-10-16T07:46:52;42.13;34.37;58.35;;
70245;Laerm;57637;49.272;8.590;2022-10-16T07:49:18;40.01;33.91;57.50;;
70245;Laerm;57637;49.272;8.590;2022-10-16T07:51:43;42.15;34.61;68.27;;
70245;Laerm;57637;49.272;8.590;2022-10-16T07:54:09;42.58;33.84;72.16;;
70245;Laerm;57637;49.272;8.590;2022-10-16T07:56:35;43.91;34.90;65.88;;
70245;Laerm;57637;49.272;8.590;2022-10-16T07:59:00;52.14;37.18;76.15;;
70245;Laerm;57637;49.272;8.590;2022-10-16T08:01:26;41.50;35.52;56.49;;
70245;Laerm;57637;49.272;8.590;2022-10-16T08:03:51;40.09;35.16;58.15;;
70245;Laerm;57637;49.272;8.590;2022-10-16T08:06:18;40.79;35.18;57.58;;
70245;Laerm;57637;49.272;8.590;2022-10-16T08:08:44;39.50;34.79;51.38;;
70245;Laerm;57637;49.272;8.590;2022-10-16T08:11:10;40.31;36.35;59.27;;
70245;Laerm;57637;49.272;8.590;2022-10-16T08:13:36;41.02;37.15;50.73;;
70245;Laerm;57637;49.272;8.590;2022-10-16T08:16:02;40.51;36.41;52.53;;
70245;Laerm;57637;49.272;8.590;2022-10-16T08:18:39;41.75;37.35;49.48;;
70245;Laerm;57637;49.272;8.590;2022-10-16T08:21:06;41.99;37.43;57.02;;
70245;Laerm;57637;49.272;8.590;2022-10-16T08:23:32;44.92;39.21;57.05;;
70245;Laerm;57637;49.272;8.590;2022-10-16T08:26:05;41.81;37.89;55.31;;
70245;Laerm;57637;49.272;8.590;2022-10-16T08:28:31;44.97;37.76;60.92;;
70245;Laerm;57637;49.272;8.590;2022-10-16T08:31:14;44.80;38.25;57.75;;
70245;Laerm;57637;49.272;8.590;2022-10-16T08:33:43;44.03;38.30;54.78;;
70245;Laerm;57637;49.272;8.590;2022-10-16T08:36:11;42.80;38.23;58.54;;
70245;Laerm;57637;49.272;8.590;2022-10-16T08:38:36;41.78;37.24;53.70;;
70245;Laerm;57637;49.272;8.590;2022-10-16T08:41:27;45.26;38.42;62.16;;
70245;Laerm;57637;49.272;8.590;2022-10-16T08:49:18;45.52;36.39;69.06;;
70245;Laerm;57637;49.272;8.590;2022-10-16T08:51:43;39.59;35.20;53.23;;
70245;Laerm;57637;49.272;8.590;2022-10-16T08:54:31;39.13;34.35;54.33;;
70245;Laerm;57637;49.272;8.590;2022-10-16T08:57:09;42.49;34.03;70.64;;
70245;Laerm;57637;49.272;8.590;2022-10-16T08:59:36;41.24;33.54;62.31;;
70245;Laerm;57637;49.272;8.590;2022-10-16T09:02:02;40.29;32.20;54.21;;
70245;Laerm;57637;49.272;8.590;2022-10-16T09:07:09;38.05;31.94;54.35;;
70245;Laerm;57637;49.272;8.590;2022-10-16T09:12:39;40.56;31.64;60.81;;
70245;Laerm;57637;49.272;8.590;2022-10-16T09:25:30;38.15;32.41;53.01;;
70245;Laerm;57637;49.272;8.590;2022-10-16T09:27:56;39.07;33.37;54.21;;
70245;Laerm;57637;49.272;8.590;2022-10-16T09:30:22;40.96;33.28;60.95;;
70245;Laerm;57637;49.272;8.590;2022-10-16T09:32:50;39.84;32.46;61.96;;
70245;Laerm;57637;49.272;8.590;2022-10-16T09:35:19;39.25;33.23;54.36;;
70245;Laerm;57637;49.272;8.590;2022-10-16T09:37:48;38.90;32.91;51.45;;
70245;Laerm;57637;49.272;8.590;2022-10-16T09:40:26;41.45;34.14;65.66;;
70245;Laerm;57637;49.272;8.590;2022-10-16T09:43:01;42.55;34.44;59.41;;
70245;Laerm;57637;49.272;8.590;2022-10-16T09:45:27;38.30;32.46;49.77;;
70245;Laerm;57637;49.272;8.590;2022-10-16T09:47:52;38.81;32.53;58.18;;
70245;Laerm;57637;49.272;8.590;2022-10-16T09:50:26;39.60;32.68;50.78;;
70245;Laerm;57637;49.272;8.590;2022-10-16T09:53:07;45.63;32.05;69.37;;
70245;Laerm;57637;49.272;8.590;2022-10-16T09:55:35;39.20;32.56;51.82;;
70245;Laerm;57637;49.272;8.590;2022-10-16T09:58:01;38.16;32.92;54.42;;
70245;Laerm;57637;49.272;8.590;2022-10-16T10:00:26;40.39;32.53;56.57;;
70245;Laerm;57637;49.272;8.590;2022-10-16T10:02:53;38.19;33.24;47.60;;
70245;Laerm;57637;49.272;8.590;2022-10-16T10:05:25;39.56;32.53;60.96;;
70245;Laerm;57637;49.272;8.590;2022-10-16T10:07:57;43.11;33.86;55.51;;
70245;Laerm;57637;49.272;8.590;2022-10-16T10:10:28;39.72;33.39;65.07;;
70245;Laerm;57637;49.272;8.590;2022-10-16T10:12:55;38.80;31.50;61.29;;
70245;Laerm;57637;49.272;8.590;2022-10-16T10:15:21;42.32;32.47;60.93;;
70245;Laerm;57637;49.272;8.590;2022-10-16T10:17:53;42.04;32.07;68.02;;
70245;Laerm;57637;49.272;8.590;2022-10-16T10:20:29;39.84;33.30;48.22;;
70245;Laerm;57637;49.272;8.590;2022-10-16T10:22:58;38.47;32.97;51.58;;
70245;Laerm;57637;49.272;8.590;2022-10-16T10:39:08;42.77;34.75;67.69;;
70245;Laerm;57637;49.272;8.590;2022-10-16T10:41:56;42.44;33.82;67.93;;
70245;Laerm;57637;49.272;8.590;2022-10-16T10:51:01;38.18;32.59;49.00;;
70245;Laerm;57637;49.272;8.590;2022-10-16T10:53:36;39.37;32.19;53.86;;
70245;Laerm;57637;49.272;8.590;2022-10-16T10:56:40;43.21;34.30;55.57;;
70245;Laerm;57637;49.272;8.590;2022-10-16T10:59:42;43.71;32.89;57.93;;
70245;Laerm;57637;49.272;8.590;2022-10-16T11:02:43;44.53;32.30;59.47;;
70245;Laerm;57637;49.272;8.590;2022-10-16T11:07:57;36.12;32.16;48.90;;
70245;Laerm;57637;49.272;8.590;2022-10-16T11:10:40;36.87;31.63;52.04;;
70245;Laerm;57637;49.272;8.590;2022-10-16T11:13:38;41.07;32.44;59.27;;
70245;Laerm;57637;49.272;8.590;2022-10-16T11:21:41;38.90;30.99;60.57;;
70245;Laerm;57637;49.272;8.590;2022-10-16T11:24:19;39.88;30.56;58.31;;
70245;Laerm;57637;49.272;8.590;2022-10-16T11:26:48;36.74;30.53;55.14;;
70245;Laerm;57637;49.272;8.590;2022-10-16T11:29:21;34.57;30.01;54.65;;
70245;Laerm;57637;49.272;8.590;2022-10-16T11:31:53;39.45;30.24;58.07;;
70245;Laerm;57637;49.272;8.590;2022-10-16T11:34:33;41.98;31.44;54.12;;
70245;Laerm;57637;49.272;8.590;2022-10-16T11:37:10;35.02;30.21;51.27;;
70245;Laerm;57637;49.272;8.590;2022-10-16T11:39:37;36.70;30.49;60.78;;
70245;Laerm;57637;49.272;8.590;2022-10-16T11:50:41;37.01;30.44;60.66;;
70245;Laerm;57637;49.272;8.590;2022-10-16T11:56:01;36.19;31.06;49.19;;
70245;Laerm;57637;49.272;8.590;2022-10-16T11:58:30;39.09;30.75;58.97;;
70245;Laerm;57637;49.272;8.590;2022-10-16T12:01:24;34.62;30.63;49.87;;
70245;Laerm;57637;49.272;8.590;2022-10-16T12:04:05;37.84;31.23;51.58;;
70245;Laerm;57637;49.272;8.590;2022-10-16T12:09:02;35.36;30.11;45.20;;
70245;Laerm;57637;49.272;8.590;2022-10-16T12:14:18;33.98;30.07;50.50;;
70245;Laerm;57637;49.272;8.590;2022-10-16T12:19:18;38.79;31.03;56.68;;
70245;Laerm;57637;49.272;8.590;2022-10-16T12:21:45;37.96;30.90;53.60;;
70245;Laerm;57637;49.272;8.590;2022-10-16T12:24:38;37.14;31.09;50.16;;
70245;Laerm;57637;49.272;8.590;2022-10-16T12:27:24;35.21;30.19;51.62;;
70245;Laerm;57637;49.272;8.590;2022-10-16T12:29:55;36.53;30.83;49.85;;
70245;Laerm;57637;49.272;8.590;2022-10-16T12:32:36;37.87;31.27;53.51;;
70245;Laerm;57637;49.272;8.590;2022-10-16T12:35:05;40.15;34.20;63.70;;
70245;Laerm;57637;49.272;8.590;2022-10-16T12:37:34;39.86;31.23;55.40;;
70245;Laerm;57637;49.272;8.590;2022-10-16T12:40:22;37.02;31.49;51.13;;
70245;Laerm;57637;49.272;8.590;2022-10-16T12:42:49;35.09;30.91;56.02;;
70245;Laerm;57637;49.272;8.590;2022-10-16T12:47:51;35.99;30.87;51.21;;
70245;Laerm;57637;49.272;8.590;2022-10-16T12:50:26;39.32;30.50;61.80;;
70245;Laerm;57637;49.272;8.590;2022-10-16T12:52:52;39.76;31.02;61.88;;
70245;Laerm;57637;49.272;8.590;2022-10-16T12:55:19;35.77;31.06;46.78;;
70245;Laerm;57637;49.272;8.590;2022-10-16T12:58:04;38.54;31.03;60.14;;
70245;Laerm;57637;49.272;8.590;2022-10-16T13:00:56;44.38;32.13;56.78;;
70245;Laerm;57637;49.272;8.590;2022-10-16T13:06:53;40.39;31.58;53.67;;
70245;Laerm;57637;49.272;8.590;2022-10-16T13:14:18;37.05;30.29;51.41;;
70245;Laerm;57637;49.272;8.590;2022-10-16T13:22:29;44.32;31.52;55.19;;
70245;Laerm;57637;49.272;8.590;2022-10-16T13:25:16;38.70;31.87;48.78;;
70245;Laerm;57637;49.272;8.590;2022-10-16T13:27:59;39.75;29.81;71.54;;
70245;Laerm;57637;49.272;8.590;2022-10-16T13:30:28;34.88;30.00;46.39;;
70245;Laerm;57637;49.272;8.590;2022-10-16T13:33:14;39.14;29.83;52.50;;
70245;Laerm;57637;49.272;8.590;2022-10-16T13:35:49;36.57;31.15;52.22;;
70245;Laerm;57637;49.272;8.590;2022-10-16T13:38:18;37.19;31.31;52.05;;
70245;Laerm;57637;49.272;8.590;2022-10-16T13:40:58;36.01;31.67;51.30;;
70245;Laerm;57637;49.272;8.590;2022-10-16T13:43:37;45.92;33.91;55.47;;
70245;Laerm;57637;49.272;8.590;2022-10-16T13:49:19;38.42;32.53;51.60;;
70245;Laerm;57637;49.272;8.590;2022-10-16T13:51:58;37.05;33.26;55.56;;
70245;Laerm;57637;49.272;8.590;2022-10-16T13:54:26;37.56;32.20;56.64;;
70245;Laerm;57637;49.272;8.590;2022-10-16T13:56:52;38.89;32.91;58.21;;
70245;Laerm;57637;49.272;8.590;2022-10-16T13:59:33;40.77;32.16;55.58;;
70245;Laerm;57637;49.272;8.590;2022-10-16T14:01:59;36.45;32.19;45.66;;
70245;Laerm;57637;49.272;8.590;2022-10-16T14:04:32;37.62;31.43;46.00;;
70245;Laerm;57637;49.272;8.590;2022-10-16T14:06:58;39.25;34.06;47.49;;
70245;Laerm;57637;49.272;8.590;2022-10-16T14:09:29;37.38;32.91;47.19;;
70245;Laerm;57637;49.272;8.590;2022-10-16T14:14:20;38.11;33.43;48.31;;
70245;Laerm;57637;49.272;8.590;2022-10-16T14:16:46;40.92;35.18;50.55;;
70245;Laerm;57637;49.272;8.590;2022-10-16T14:21:47;44.04;39.43;52.08;;
70245;Laerm;57637;49.272;8.590;2022-10-16T14:24:13;47.43;40.51;56.58;;
70245;Laerm;57637;49.272;8.590;2022-10-16T14:26:47;49.42;40.83;62.28;;
70245;Laerm;57637;49.272;8.590;2022-10-16T14:29:17;49.70;37.98;62.34;;
70245;Laerm;57637;49.272;8.590;2022-10-16T14:31:56;44.76;38.62;56.01;;
70245;Laerm;57637;49.272;8.590;2022-10-16T14:34:24;46.20;37.39;56.68;;
70245;Laerm;57637;49.272;8.590;2022-10-16T14:36:50;41.90;37.01;62.52;;
70245;Laerm;57637;49.272;8.590;2022-10-16T14:39:19;42.78;38.16;55.36;;
70245;Laerm;57637;49.272;8.590;2022-10-16T14:41:48;45.44;39.12;61.12;;
70245;Laerm;57637;49.272;8.590;2022-10-16T14:44:15;43.47;38.64;55.23;;
70245;Laerm;57637;49.272;8.590;2022-10-16T14:46:43;45.10;40.19;59.38;;
70245;Laerm;57637;49.272;8.590;2022-10-16T14:51:35;42.61;38.15;55.18;;
70245;Laerm;57637;49.272;8.590;2022-10-16T14:54:01;42.37;38.26;47.81;;
70245;Laerm;57637;49.272;8.590;2022-10-16T14:56:34;42.33;38.15;52.35;;
70245;Laerm;57637;49.272;8.590;2022-10-16T14:59:10;43.46;39.73;55.93;;
70245;Laerm;57637;49.272;8.590;2022-10-16T15:01:38;45.12;39.29;65.29;;
70245;Laerm;57637;49.272;8.590;2022-10-16T15:04:03;45.18;40.12;61.09;;
70245;Laerm;57637;49.272;8.590;2022-10-16T15:06:29;43.88;39.46;55.49;;
70245;Laerm;57637;49.272;8.590;2022-10-16T15:08:54;44.69;39.46;66.44;;
70245;Laerm;57637;49.272;8.590;2022-10-16T15:11:20;43.18;38.21;59.69;;
70245;Laerm;57637;49.272;8.590;2022-10-16T15:13:45;44.29;38.55;61.34;;
70245;Laerm;57637;49.272;8.590;2022-10-16T15:16:13;43.66;36.79;64.25;;
70245;Laerm;57637;49.272;8.590;2022-10-16T15:18:38;41.78;37.46;51.44;;
70245;Laerm;57637;49.272;8.590;2022-10-16T15:21:04;44.04;37.40;65.87;;
70245;Laerm;57637;49.272;8.590;2022-10-16T15:23:30;44.50;37.54;56.45;;
70245;Laerm;57637;49.272;8.590;2022-10-16T15:25:56;42.66;36.79;57.02;;
70245;Laerm;57637;49.272;8.590;2022-10-16T15:28:22;42.34;36.79;59.60;;
70245;Laerm;57637;49.272;8.590;2022-10-16T15:30:53;43.77;37.02;57.12;;
70245;Laerm;57637;49.272;8.590;2022-10-16T15:33:23;47.96;37.50;67.46;;
70245;Laerm;57637;49.272;8.590;2022-10-16T15:35:52;43.00;37.51;49.42;;
70245;Laerm;57637;49.272;8.590;2022-10-16T15:38:19;42.88;38.74;51.73;;
70245;Laerm;57637;49.272;8.590;2022-10-16T15:40:46;42.19;37.99;56.24;;
70245;Laerm;57637;49.272;8.590;2022-10-16T15:43:12;42.56;38.32;59.58;;
70245;Laerm;57637;49.272;8.590;2022-10-16T15:45:37;44.52;39.58;59.69;;
70245;Laerm;57637;49.272;8.590;2022-10-16T15:48:03;45.19;39.63;53.73;;